createdAt,value
2023-03-07T00:00:00.889Z,81.90
2023-03-07T00:02:27.995Z,82.00
2023-03-07T00:04:55.708Z,82.10
2023-03-07T00:07:22.667Z,82.30
2023-03-07T00:09:49.589Z,82.40
2023-03-07T00:12:16.653Z,82.40
2023-03-07T00:14:43.561Z,82.50
2023-03-07T00:17:10.570Z,82.50
2023-03-07T00:19:37.572Z,82.60
2023-03-07T00:22:04.606Z,82.90
2023-03-07T00:24:31.811Z,83.10
2023-03-07T00:26:58.743Z,83.40
2023-03-07T00:29:25.692Z,83.50
2023-03-07T00:31:52.628Z,83.80
2023-03-07T00:34:19.646Z,83.90
2023-03-07T00:36:46.774Z,84.20
2023-03-07T00:39:14.638Z,84.20
2023-03-07T00:41:41.552Z,84.30
2023-03-07T00:44:08.509Z,84.30
2023-03-07T00:46:35.448Z,84.10
2023-03-07T00:49:02.594Z,84.10
2023-03-07T00:51:29.616Z,84.10
2023-03-07T00:53:56.893Z,84.10
2023-03-07T00:56:25.929Z,84.00
2023-03-07T00:58:53.200Z,84.00
2023-03-07T01:01:23.447Z,84.00
2023-03-07T01:03:53.771Z,84.10
2023-03-07T01:06:23.633Z,84.30
2023-03-07T01:08:51.323Z,84.40
2023-03-07T01:11:18.525Z,84.50
2023-03-07T01:13:45.920Z,84.80
2023-03-07T01:16:20.252Z,85.00
2023-03-07T01:18:53.727Z,85.40
2023-03-07T01:21:26.737Z,85.60
2023-03-07T01:23:54.456Z,85.80
2023-03-07T01:26:24.005Z,85.90
2023-03-07T01:28:52.564Z,86.30
2023-03-07T01:31:20.588Z,86.60
2023-03-07T01:33:48.850Z,86.80
2023-03-07T01:36:22.469Z,87.00
2023-03-07T01:38:50.303Z,87.30
2023-03-07T01:41:17.640Z,87.40
2023-03-07T01:43:47.398Z,87.70
2023-03-07T01:46:17.992Z,87.80
2023-03-07T01:48:54.060Z,87.90
2023-03-07T01:51:21.499Z,88.20
2023-03-07T01:53:53.554Z,88.30
2023-03-07T01:56:22.461Z,88.50
2023-03-07T01:58:50.550Z,88.70
2023-03-07T02:01:18.175Z,88.80
2023-03-07T02:03:59.870Z,89.00
2023-03-07T02:06:28.796Z,89.30
2023-03-07T02:08:56.927Z,89.20
2023-03-07T02:11:24.778Z,89.30
2023-03-07T02:13:52.985Z,89.50
2023-03-07T02:16:20.465Z,89.50
2023-03-07T02:18:50.131Z,89.60
2023-03-07T02:21:23.014Z,89.70
2023-03-07T02:24:08.524Z,89.80
2023-03-07T02:26:46.404Z,89.90
2023-03-07T02:29:13.614Z,89.90
2023-03-07T02:31:42.940Z,90.30
2023-03-07T02:34:26.399Z,90.00
2023-03-07T02:37:11.059Z,90.10
2023-03-07T02:39:42.737Z,90.00
2023-03-07T02:42:16.234Z,90.10
2023-03-07T02:44:56.047Z,90.10
2023-03-07T02:47:23.102Z,90.20
2023-03-07T02:49:50.002Z,90.20
2023-03-07T02:52:16.892Z,90.20
2023-03-07T02:54:43.743Z,90.20
2023-03-07T02:57:13.295Z,90.30
2023-03-07T02:59:40.135Z,90.40
2023-03-07T03:02:07.078Z,90.40
2023-03-07T03:04:33.864Z,90.40
2023-03-07T03:07:00.782Z,90.40
2023-03-07T03:09:27.616Z,90.40
2023-03-07T03:11:54.493Z,90.50
2023-03-07T03:14:24.836Z,90.50
2023-03-07T03:16:54.697Z,90.50
2023-03-07T03:19:21.759Z,90.60
2023-03-07T03:21:48.873Z,90.60
2023-03-07T03:24:16.691Z,90.70
2023-03-07T03:26:45.592Z,90.70
2023-03-07T03:29:13.013Z,90.70
2023-03-07T03:31:40.383Z,90.70
2023-03-07T03:34:07.751Z,90.60
2023-03-07T03:36:34.672Z,90.50
2023-03-07T03:39:10.849Z,90.40
2023-03-07T03:41:42.114Z,90.30
2023-03-07T03:44:10.092Z,90.20
2023-03-07T03:46:37.297Z,90.00
2023-03-07T03:49:04.759Z,89.50
2023-03-07T03:51:32.620Z,89.20
2023-03-07T03:53:59.915Z,88.90
2023-03-07T03:56:28.061Z,88.70
2023-03-07T03:58:55.857Z,88.50
2023-03-07T04:01:24.157Z,88.50
2023-03-07T04:03:52.076Z,88.50
2023-03-07T04:06:20.568Z,88.50
2023-03-07T04:08:47.907Z,88.50
2023-03-07T04:11:15.087Z,88.50
2023-03-07T04:13:42.401Z,88.40
2023-03-07T04:16:09.309Z,88.30
2023-03-07T04:18:36.583Z,88.30
2023-03-07T04:21:04.109Z,88.20
2023-03-07T04:23:30.907Z,88.30
2023-03-07T04:25:59.049Z,88.30
2023-03-07T04:28:27.970Z,88.50
2023-03-07T04:30:56.322Z,88.70
2023-03-07T04:33:27.341Z,89.00
2023-03-07T04:35:55.082Z,89.40
2023-03-07T04:38:22.117Z,89.80
2023-03-07T04:40:48.935Z,90.10
2023-03-07T04:43:16.170Z,90.30
2023-03-07T04:45:43.075Z,90.50
2023-03-07T04:48:09.908Z,90.70
2023-03-07T04:50:37.317Z,90.90
2023-03-07T04:53:04.450Z,91.00
2023-03-07T04:55:31.354Z,91.20
2023-03-07T04:57:58.335Z,91.40
2023-03-07T05:00:26.081Z,91.50
2023-03-07T05:02:56.723Z,91.70
2023-03-07T05:05:23.689Z,91.80
2023-03-07T05:07:51.383Z,91.90
2023-03-07T05:10:18.452Z,92.00
2023-03-07T05:12:45.346Z,92.10
2023-03-07T05:15:12.727Z,92.10
2023-03-07T05:17:39.931Z,92.00
2023-03-07T05:20:07.484Z,91.90
2023-03-07T05:22:35.757Z,91.90
2023-03-07T05:25:02.829Z,91.90
2023-03-07T05:27:29.838Z,92.00
2023-03-07T05:29:56.768Z,92.00
2023-03-07T05:32:23.652Z,92.20
2023-03-07T05:34:51.183Z,92.30
2023-03-07T05:37:20.346Z,92.50
2023-03-07T05:39:47.736Z,92.70
2023-03-07T05:42:15.632Z,92.90
2023-03-07T05:44:42.996Z,93.10
2023-03-07T05:47:10.770Z,93.30
2023-03-07T05:49:38.435Z,93.40
2023-03-07T05:52:05.496Z,93.60
2023-03-07T05:54:32.323Z,93.70
2023-03-07T05:56:59.237Z,93.80
2023-03-07T05:59:26.269Z,93.80
2023-03-07T06:01:53.837Z,93.60
2023-03-07T06:04:20.715Z,93.50
2023-03-07T06:06:47.544Z,93.50
2023-03-07T06:09:14.412Z,93.40
2023-03-07T06:11:41.230Z,93.40
2023-03-07T06:14:08.070Z,93.20
2023-03-07T06:16:34.890Z,93.00
2023-03-07T06:19:03.482Z,92.90
2023-03-07T06:21:30.590Z,92.70
2023-03-07T06:23:58.346Z,92.50
2023-03-07T06:26:25.234Z,92.30
2023-03-07T06:28:53.980Z,92.10
2023-03-07T06:31:22.769Z,91.50
2023-03-07T06:33:51.522Z,91.00
2023-03-07T06:36:20.453Z,90.30
2023-03-07T06:38:52.918Z,88.60
2023-03-07T06:41:20.073Z,87.30
2023-03-07T06:43:52.920Z,86.70
2023-03-07T06:46:25.726Z,86.60
2023-03-07T06:48:55.222Z,86.70
2023-03-07T06:51:23.467Z,86.40
2023-03-07T06:53:54.036Z,86.30
2023-03-07T06:56:21.032Z,86.40
2023-03-07T06:58:48.594Z,86.50
2023-03-07T07:01:21.157Z,86.50
2023-03-07T07:03:51.074Z,86.20
2023-03-07T07:06:18.757Z,85.90
2023-03-07T07:08:45.725Z,85.80
2023-03-07T07:11:12.950Z,85.20
2023-03-07T07:13:40.118Z,83.10
2023-03-07T07:16:09.575Z,82.20
2023-03-07T07:18:38.709Z,78.90
2023-03-07T07:21:07.314Z,75.90
2023-03-07T07:23:34.256Z,74.40
2023-03-07T07:26:01.768Z,71.70
2023-03-07T07:28:28.987Z,69.80
2023-03-07T07:30:56.131Z,69.70
2023-03-07T07:33:23.746Z,68.70
2023-03-07T07:35:51.492Z,69.30
2023-03-07T07:38:19.155Z,70.50
2023-03-07T07:40:46.151Z,72.00
2023-03-07T07:43:18.610Z,73.40
2023-03-07T07:45:54.095Z,75.00
2023-03-07T07:48:21.950Z,76.20
2023-03-07T07:50:49.464Z,77.10
2023-03-07T07:53:17.950Z,77.60
2023-03-07T07:55:46.177Z,77.90
2023-03-07T07:58:13.219Z,74.90
2023-03-07T08:00:40.379Z,73.50
2023-03-07T08:03:07.431Z,73.70
2023-03-07T08:05:34.425Z,74.80
2023-03-07T08:08:01.362Z,74.70
2023-03-07T08:10:28.347Z,75.40
2023-03-07T08:12:55.582Z,76.10
2023-03-07T08:15:22.659Z,76.50
2023-03-07T08:17:51.270Z,76.70
2023-03-07T08:20:22.251Z,76.50
2023-03-07T08:22:50.525Z,75.50
2023-03-07T08:25:22.528Z,74.60
2023-03-07T08:27:55.141Z,73.10
2023-03-07T08:30:24.415Z,72.40
2023-03-07T08:32:53.164Z,71.10
2023-03-07T08:35:20.365Z,69.60
2023-03-07T08:37:49.131Z,67.90
2023-03-07T08:40:16.980Z,66.20
2023-03-07T08:42:44.022Z,65.10
2023-03-07T08:45:11.626Z,65.50
2023-03-07T08:47:38.695Z,66.40
2023-03-07T08:50:06.236Z,67.10
2023-03-07T08:52:34.097Z,67.80
2023-03-07T08:55:01.004Z,68.60
2023-03-07T08:57:28.007Z,69.20
2023-03-07T08:59:55.017Z,69.70
2023-03-07T09:02:22.022Z,69.80
2023-03-07T09:04:49.836Z,70.20
2023-03-07T09:07:17.233Z,70.20
2023-03-07T09:09:44.797Z,70.60
2023-03-07T09:12:11.709Z,71.60
2023-03-07T09:14:38.732Z,72.00
2023-03-07T09:17:05.764Z,72.30
2023-03-07T09:19:32.953Z,72.50
2023-03-07T09:21:59.962Z,72.90
2023-03-07T09:24:29.773Z,72.90
2023-03-07T09:26:57.049Z,72.60
2023-03-07T09:29:24.861Z,69.60
2023-03-07T09:31:51.915Z,67.10
2023-03-07T09:34:18.866Z,65.30
2023-03-07T09:36:45.783Z,64.60
2023-03-07T09:39:16.664Z,61.30
2023-03-07T09:41:49.347Z,58.60
2023-03-07T09:44:16.141Z,55.70
2023-03-07T09:47:47.773Z,52.90
2023-03-07T09:50:23.288Z,53.40
2023-03-07T09:52:53.632Z,51.60
2023-03-07T09:55:21.989Z,50.60
2023-03-07T09:57:50.606Z,48.90
2023-03-07T10:00:20.887Z,47.30
2023-03-07T10:02:53.730Z,45.30
2023-03-07T10:05:35.583Z,45.00
2023-03-07T10:08:02.723Z,46.20
2023-03-07T10:10:44.413Z,47.20
2023-03-07T10:13:43.563Z,47.80
2023-03-07T10:16:16.430Z,48.10
2023-03-07T10:19:01.919Z,47.50
2023-03-07T10:21:44.513Z,46.60
2023-03-07T10:24:50.119Z,44.10
2023-03-07T10:27:17.316Z,44.00
2023-03-07T10:29:48.788Z,44.00
2023-03-07T10:32:35.046Z,44.40
2023-03-07T10:35:16.185Z,45.10
2023-03-07T10:37:45.765Z,45.70
2023-03-07T10:40:17.953Z,44.90
2023-03-07T10:42:44.892Z,42.50
2023-03-07T10:45:13.189Z,41.10
2023-03-07T10:47:40.031Z,39.60
2023-03-07T10:50:16.775Z,39.70
2023-03-07T10:52:48.948Z,40.30
2023-03-07T10:55:34.403Z,40.10
2023-03-07T10:58:20.075Z,40.30
2023-03-07T11:01:07.234Z,40.10
2023-03-07T11:03:51.939Z,38.10
2023-03-07T11:06:32.480Z,38.90
2023-03-07T11:09:09.880Z,38.50
2023-03-07T11:11:36.793Z,37.40
2023-03-07T11:14:13.362Z,35.60
2023-03-07T11:16:52.079Z,34.90
2023-03-07T11:19:34.091Z,34.10
2023-03-07T11:22:03.506Z,33.40
2023-03-07T11:24:37.700Z,32.10
2023-03-07T11:27:04.653Z,30.70
2023-03-07T11:29:33.781Z,30.20
2023-03-07T11:32:05.845Z,29.80
2023-03-07T11:34:51.738Z,30.20
2023-03-07T11:37:27.470Z,30.10
2023-03-07T11:40:13.000Z,29.90
2023-03-07T11:42:44.561Z,30.30
2023-03-07T11:45:11.384Z,30.60
2023-03-07T11:47:38.190Z,33.00
2023-03-07T11:50:13.842Z,35.50
2023-03-07T11:52:58.972Z,37.90
2023-03-07T11:55:36.017Z,38.80
2023-03-07T11:58:10.199Z,37.60
2023-03-07T12:00:52.365Z,37.50
2023-03-07T12:03:28.289Z,39.20
2023-03-07T12:06:13.755Z,40.30
2023-03-07T12:09:00.411Z,40.60
2023-03-07T12:11:39.879Z,40.30
2023-03-07T12:14:12.946Z,40.10
2023-03-07T12:16:54.809Z,41.00
2023-03-07T12:19:27.918Z,41.40
2023-03-07T12:21:57.792Z,41.40
2023-03-07T12:24:31.247Z,42.20
2023-03-07T12:27:00.513Z,42.50
2023-03-07T12:29:33.358Z,42.70
2023-03-07T12:32:04.005Z,43.00
2023-03-07T12:34:39.433Z,42.00
2023-03-07T12:37:08.161Z,39.80
2023-03-07T12:39:44.573Z,38.40
2023-03-07T12:42:19.430Z,39.10
2023-03-07T12:44:55.210Z,39.20
2023-03-07T12:47:42.806Z,40.00
2023-03-07T12:50:12.874Z,39.60
2023-03-07T12:52:58.486Z,40.00
2023-03-07T12:55:31.204Z,38.30
2023-03-07T12:58:04.057Z,37.80
2023-03-07T13:00:32.156Z,38.50
2023-03-07T13:03:04.323Z,38.30
2023-03-07T13:05:31.817Z,38.20
2023-03-07T13:07:58.954Z,38.30
2023-03-07T13:10:26.095Z,38.30
2023-03-07T13:12:53.232Z,38.80
2023-03-07T13:15:20.970Z,39.40
2023-03-07T13:17:47.826Z,39.50
2023-03-07T13:20:30.921Z,40.50
2023-03-07T13:22:59.501Z,41.60
2023-03-07T13:25:27.533Z,42.30
2023-03-07T13:27:55.660Z,43.00
2023-03-07T13:30:23.409Z,43.70
2023-03-07T13:32:54.433Z,44.70
2023-03-07T13:35:24.521Z,45.40
2023-03-07T13:37:52.720Z,44.90
2023-03-07T13:40:30.461Z,43.80
2023-03-07T13:42:57.491Z,43.20
2023-03-07T13:45:39.688Z,43.30
2023-03-07T13:48:32.624Z,42.50
2023-03-07T13:51:00.130Z,41.40
2023-03-07T13:53:36.056Z,41.90
2023-03-07T13:56:09.150Z,42.60
2023-03-07T13:58:56.410Z,42.70
2023-03-07T14:01:32.995Z,42.60
2023-03-07T14:04:03.136Z,43.50
2023-03-07T14:06:40.325Z,44.60
2023-03-07T14:09:12.040Z,44.30
2023-03-07T14:12:01.749Z,44.30
2023-03-07T14:14:39.775Z,44.70
2023-03-07T14:17:06.578Z,45.10
2023-03-07T14:19:52.790Z,45.80
2023-03-07T14:22:27.114Z,46.20
2023-03-07T14:24:57.634Z,46.30
2023-03-07T14:27:24.561Z,45.30
2023-03-07T14:29:52.543Z,44.90
2023-03-07T14:32:32.149Z,43.20
2023-03-07T14:34:59.144Z,41.90
2023-03-07T14:37:27.238Z,40.50
2023-03-07T14:40:13.559Z,41.10
2023-03-07T14:42:46.392Z,42.00
2023-03-07T14:45:28.277Z,42.50
2023-03-07T14:48:10.199Z,43.50
2023-03-07T14:50:44.002Z,44.80
2023-03-07T14:53:29.645Z,45.90
2023-03-07T14:55:59.537Z,47.20
2023-03-07T14:58:36.178Z,47.80
2023-03-07T15:01:11.213Z,48.30
2023-03-07T15:03:45.025Z,48.70
2023-03-07T15:06:13.978Z,48.20
2023-03-07T15:08:40.898Z,48.10
2023-03-07T15:11:22.561Z,48.10
2023-03-07T15:13:52.509Z,48.20
2023-03-07T15:16:25.953Z,48.40
2023-03-07T15:18:55.331Z,48.50
2023-03-07T15:21:24.842Z,48.80
2023-03-07T15:23:58.626Z,49.20
2023-03-07T15:26:26.998Z,49.80
2023-03-07T15:29:02.291Z,50.50
2023-03-07T15:31:31.829Z,50.90
2023-03-07T15:34:20.307Z,51.10
2023-03-07T15:36:47.227Z,51.30
2023-03-07T15:39:43.565Z,51.30
2023-03-07T15:42:23.689Z,51.50
2023-03-07T15:45:04.939Z,51.70
2023-03-07T15:47:32.647Z,52.10
2023-03-07T15:50:03.952Z,52.70
2023-03-07T15:52:34.163Z,53.50
2023-03-07T15:55:05.450Z,54.10
2023-03-07T15:57:39.237Z,54.30
2023-03-07T16:00:32.445Z,54.80
2023-03-07T16:03:33.022Z,54.90
2023-03-07T16:06:01.682Z,55.60
2023-03-07T16:08:28.832Z,55.60
2023-03-07T16:11:04.719Z,55.80
2023-03-07T16:13:42.341Z,55.90
2023-03-07T16:16:17.416Z,56.50
2023-03-07T16:18:45.586Z,56.00
2023-03-07T16:21:14.207Z,56.40
2023-03-07T16:23:41.808Z,56.30
2023-03-07T16:26:17.462Z,56.30
2023-03-07T16:28:44.618Z,56.90
2023-03-07T16:31:13.386Z,57.10
2023-03-07T16:33:40.676Z,57.30
2023-03-07T16:36:10.218Z,57.40
2023-03-07T16:38:37.403Z,57.60
2023-03-07T16:41:10.379Z,57.70
2023-03-07T16:43:38.288Z,58.00
2023-03-07T16:46:26.240Z,58.20
2023-03-07T16:48:53.252Z,58.30
2023-03-07T16:51:23.483Z,58.30
2023-03-07T16:53:51.230Z,58.50
2023-03-07T16:56:41.942Z,58.60
2023-03-07T16:59:20.946Z,59.00
2023-03-07T17:01:50.673Z,59.00
2023-03-07T17:04:18.168Z,59.30
2023-03-07T17:06:46.235Z,59.70
2023-03-07T17:09:15.742Z,59.80
2023-03-07T17:11:51.000Z,60.20
2023-03-07T17:14:19.495Z,60.60
2023-03-07T17:16:50.390Z,60.70
2023-03-07T17:19:35.162Z,60.70
2023-03-07T17:22:03.367Z,60.80
2023-03-07T17:24:31.212Z,60.60
2023-03-07T17:27:07.415Z,60.10
2023-03-07T17:30:00.646Z,59.60
2023-03-07T17:32:27.728Z,58.10
2023-03-07T17:34:54.812Z,58.30
2023-03-07T17:37:22.180Z,58.30
2023-03-07T17:39:49.124Z,58.20
2023-03-07T17:42:17.405Z,57.90
2023-03-07T17:44:44.358Z,57.60
2023-03-07T17:47:11.281Z,57.10
2023-03-07T17:49:39.401Z,56.90
2023-03-07T17:52:07.555Z,56.90
2023-03-07T17:54:35.194Z,57.00
2023-03-07T17:57:02.997Z,57.30
2023-03-07T17:59:32.316Z,57.70
2023-03-07T18:01:59.394Z,58.00
2023-03-07T18:04:28.567Z,58.10
2023-03-07T18:06:55.538Z,58.10
2023-03-07T18:09:23.340Z,58.50
2023-03-07T18:11:50.305Z,58.70
2023-03-07T18:14:17.622Z,59.00
2023-03-07T18:16:44.936Z,59.00
2023-03-07T18:19:25.386Z,59.00
2023-03-07T18:21:53.187Z,59.20
2023-03-07T18:24:21.416Z,59.30
2023-03-07T18:26:52.151Z,59.60
2023-03-07T18:29:19.751Z,60.30
2023-03-07T18:31:47.224Z,60.30
2023-03-07T18:34:15.217Z,60.50
2023-03-07T18:36:42.813Z,60.70
2023-03-07T18:39:13.810Z,60.80
2023-03-07T18:41:40.750Z,61.10
2023-03-07T18:44:08.112Z,61.30
2023-03-07T18:46:37.096Z,61.50
2023-03-07T18:49:04.190Z,61.80
2023-03-07T18:51:32.233Z,62.10
2023-03-07T18:54:01.235Z,62.30
2023-03-07T18:56:29.011Z,63.10
2023-03-07T18:58:59.465Z,62.40
2023-03-07T19:01:29.028Z,62.60
2023-03-07T19:03:57.608Z,62.60
2023-03-07T19:06:26.740Z,62.60
2023-03-07T19:08:53.856Z,62.80
2023-03-07T19:11:21.334Z,62.80
2023-03-07T19:13:49.579Z,63.00
2023-03-07T19:16:23.438Z,63.00
2023-03-07T19:18:51.521Z,63.10
2023-03-07T19:21:23.542Z,62.90
2023-03-07T19:23:51.651Z,62.90
2023-03-07T19:26:20.156Z,63.00
2023-03-07T19:28:49.572Z,63.20
2023-03-07T19:31:22.778Z,63.40
2023-03-07T19:33:50.647Z,63.60
2023-03-07T19:36:21.280Z,63.60
2023-03-07T19:38:49.961Z,63.80
2023-03-07T19:41:22.300Z,63.80
2023-03-07T19:43:52.092Z,63.80
2023-03-07T19:46:20.764Z,63.90
2023-03-07T19:48:48.258Z,64.20
2023-03-07T19:51:20.886Z,64.50
2023-03-07T19:53:47.886Z,64.90
2023-03-07T19:56:21.006Z,65.00
2023-03-07T19:58:48.089Z,65.30
2023-03-07T20:01:18.168Z,65.40
2023-03-07T20:03:45.869Z,65.80
2023-03-07T20:06:18.740Z,66.10
2023-03-07T20:08:50.457Z,66.60
2023-03-07T20:11:30.438Z,66.40
2023-03-07T20:13:59.436Z,66.90
2023-03-07T20:16:29.304Z,67.20
2023-03-07T20:19:02.757Z,67.50
2023-03-07T20:21:30.464Z,67.90
2023-03-07T20:24:01.170Z,68.00
2023-03-07T20:26:35.353Z,68.30
2023-03-07T20:29:05.436Z,68.70
2023-03-07T20:31:33.264Z,68.90
2023-03-07T20:34:01.091Z,69.20
2023-03-07T20:36:30.826Z,69.60
2023-03-07T20:38:59.921Z,69.90
2023-03-07T20:41:29.567Z,70.00
2023-03-07T20:44:04.982Z,70.20
2023-03-07T20:46:33.045Z,70.50
2023-03-07T20:49:01.801Z,70.50
2023-03-07T20:51:32.005Z,70.70
2023-03-07T20:54:04.531Z,70.90
2023-03-07T20:56:33.220Z,71.20
2023-03-07T20:59:00.934Z,71.40
2023-03-07T21:01:29.812Z,71.60
2023-03-07T21:03:59.633Z,71.70
2023-03-07T21:06:26.735Z,71.90
2023-03-07T21:08:53.746Z,72.00
2023-03-07T21:11:21.505Z,72.10
2023-03-07T21:13:49.580Z,72.20
2023-03-07T21:16:19.375Z,72.20
2023-03-07T21:18:46.594Z,72.30
2023-03-07T21:21:18.894Z,72.40
2023-03-07T21:23:46.548Z,72.50
2023-03-07T21:26:14.382Z,72.60
2023-03-07T21:28:41.418Z,72.70
2023-03-07T21:31:19.296Z,72.80
2023-03-07T21:33:48.844Z,73.00
2023-03-07T21:36:18.725Z,72.80
2023-03-07T21:38:46.646Z,72.90
2023-03-07T21:41:14.614Z,73.00
2023-03-07T21:43:42.033Z,73.10
2023-03-07T21:46:11.863Z,73.10
2023-03-07T21:48:39.548Z,73.20
2023-03-07T21:51:06.846Z,73.10
2023-03-07T21:53:34.468Z,73.10
2023-03-07T21:56:04.767Z,73.10
2023-03-07T21:58:32.577Z,73.00
2023-03-07T22:00:59.779Z,72.80
2023-03-07T22:03:28.955Z,72.60
2023-03-07T22:05:57.421Z,72.40
2023-03-07T22:08:24.712Z,72.30
2023-03-07T22:11:03.417Z,72.10
2023-03-07T22:13:32.646Z,72.10
2023-03-07T22:16:02.196Z,71.90
2023-03-07T22:18:29.602Z,71.80
2023-03-07T22:20:56.765Z,71.70
2023-03-07T22:23:26.609Z,71.60
2023-03-07T22:25:53.786Z,71.50
2023-03-07T22:28:21.075Z,71.40
2023-03-07T22:30:49.449Z,71.40
2023-03-07T22:33:16.932Z,71.30
2023-03-07T22:35:43.961Z,71.30
2023-03-07T22:38:10.962Z,71.20
2023-03-07T22:40:39.361Z,71.10
2023-03-07T22:43:06.424Z,71.00
2023-03-07T22:45:33.341Z,70.80
2023-03-07T22:48:00.240Z,70.80
2023-03-07T22:50:27.346Z,70.70
2023-03-07T22:52:55.212Z,70.70
2023-03-07T22:55:22.368Z,70.70
2023-03-07T22:57:49.368Z,70.60
2023-03-07T23:00:16.643Z,70.50
2023-03-07T23:02:43.784Z,70.40
2023-03-07T23:05:11.264Z,70.40
2023-03-07T23:07:39.952Z,70.40
2023-03-07T23:10:07.028Z,71.20
2023-03-07T23:12:34.101Z,70.40
2023-03-07T23:15:01.094Z,70.30
2023-03-07T23:17:28.016Z,70.20
2023-03-07T23:19:55.037Z,70.10
2023-03-07T23:22:21.943Z,70.00
2023-03-07T23:24:48.904Z,70.20
2023-03-07T23:27:15.804Z,70.30
2023-03-07T23:29:42.736Z,70.40
2023-03-07T23:32:09.704Z,70.50
2023-03-07T23:34:36.732Z,70.40
2023-03-07T23:37:03.738Z,70.20
2023-03-07T23:39:30.708Z,70.10
2023-03-07T23:41:57.603Z,70.00
2023-03-07T23:44:24.585Z,70.00
2023-03-07T23:46:51.513Z,69.90
2023-03-07T23:49:18.460Z,70.00
2023-03-07T23:51:45.410Z,70.00
2023-03-07T23:54:12.418Z,70.30
2023-03-07T23:56:39.417Z,70.60
2023-03-07T23:59:06.406Z,70.80
